Time;durP1;ratioP1;P1;durP2;ratioP2;P2;SDS_P1;SDS_P2;PMS_P1;PMS_P2;Temp;Humidity;BMP_temperature;BMP_pressure;BME280_temperature;BME280_humidity;BME280_pressure;Samples;Min_cycle;Max_cycle;Signal;HPM_P1;HPM_P2
2022/12/29 00:01:40;;;;;;;3.47;2.72;;;6.90;71.20;;;;;;5041398;28;20028;-62
2022/12/29 00:04:06;;;;;;;7.18;3.60;;;6.90;71.20;;;;;;5050188;28;20060;-62
2022/12/29 00:06:32;;;;;;;5.60;3.17;;;6.90;71.20;;;;;;5047592;28;20036;-61
2022/12/29 00:08:57;;;;;;;5.38;3.05;;;6.90;71.30;;;;;;5044420;28;20034;-63
2022/12/29 00:11:26;;;;;;;6.65;3.08;;;6.80;71.30;;;;;;5052017;28;20130;-63
2022/12/29 00:16:36;;;;;;;;;;;6.80;71.30;;;;;;5049046;28;21655;-62
2022/12/29 00:19:02;;;;;;;3.40;2.40;;;6.80;71.50;;;;;;5045916;28;19909;-62
2022/12/29 00:35:14;;;;;;;5.50;3.60;;;6.70;71.60;;;;;;5040215;28;20093;-63
2022/12/29 00:45:56;;;;;;;4.25;3.05;;;6.70;72.00;;;;;;5045839;28;19919;-63
2022/12/29 00:51:07;;;;;;;5.28;2.88;;;6.70;71.80;;;;;;5044609;28;20071;-63
2022/12/29 00:53:33;;;;;;;4.20;2.60;;;6.70;72.00;;;;;;5047536;28;20040;-63
2022/12/29 00:55:59;;;;;;;5.78;2.72;;;6.70;72.00;;;;;;5038524;28;20060;-62
2022/12/29 00:58:29;;;;;;;4.28;2.58;;;6.70;72.10;;;;;;5046171;28;20026;-63
2022/12/29 01:01:05;;;;;;;4.00;2.90;;;6.70;72.30;;;;;;5034851;28;20022;-63
2022/12/29 01:03:31;;;;;;;5.60;2.88;;;6.70;72.40;;;;;;5041626;28;20050;-63
2022/12/29 01:06:01;;;;;;;4.25;2.80;;;6.70;72.30;;;;;;5039461;28;20151;-63
2022/12/29 01:08:30;;;;;;;4.65;2.90;;;6.70;72.50;;;;;;5047778;28;20034;-63
2022/12/29 01:11:00;;;;;;;4.32;3.17;;;6.70;72.50;;;;;;5046433;28;20032;-64
2022/12/29 01:13:26;;;;;;;4.32;2.88;;;6.80;72.60;;;;;;5037368;28;20425;-63
2022/12/29 01:15:53;;;;;;;6.35;3.47;;;6.70;72.50;;;;;;5051385;28;20084;-63
2022/12/29 01:18:20;;;;;;;5.60;3.17;;;6.80;72.60;;;;;;5046873;28;20030;-63
2022/12/29 01:20:50;;;;;;;3.88;2.80;;;6.80;73.30;;;;;;4990243;28;20061;-64
2022/12/29 01:23:16;;;;;;;4.47;3.00;;;6.80;72.60;;;;;;5044972;28;20136;-63
2022/12/29 01:25:42;;;;;;;4.85;3.10;;;6.80;72.70;;;;;;5046579;28;20037;-63
2022/12/29 01:28:08;;;;;;;5.40;2.90;;;6.80;72.70;;;;;;5046406;28;20025;-62
2022/12/29 01:30:35;;;;;;;3.92;2.30;;;6.90;72.80;;;;;;5034068;28;20085;-63
2022/12/29 01:33:00;;;;;;;4.88;2.50;;;6.90;73.50;;;;;;5056815;28;20052;-63
2022/12/29 01:35:26;;;;;;;4.30;2.60;;;6.90;72.70;;;;;;5042770;28;20029;-63
2022/12/29 01:37:52;;;;;;;5.07;2.70;;;6.90;72.60;;;;;;5055485;28;20042;-64
2022/12/29 01:40:18;;;;;;;4.60;2.53;;;6.90;73.20;;;;;;5041018;28;20072;-63
2022/12/29 01:42:44;;;;;;;3.63;2.53;;;7.00;72.50;;;;;;5044080;28;20464;-63
2022/12/29 01:45:15;;;;;;;5.60;2.50;;;7.00;72.50;;;;;;5044643;28;20057;-63
2022/12/29 01:47:47;;;;;;;3.70;2.38;;;7.00;73.30;;;;;;5044372;28;20018;-63
2022/12/29 01:50:19;;;;;;;3.78;2.20;;;7.00;72.70;;;;;;5040378;28;20036;-63
2022/12/29 01:52:57;;;;;;;4.13;2.38;;;7.00;72.60;;;;;;5043645;28;20049;-62
2022/12/29 01:55:24;;;;;;;3.45;2.45;;;7.00;72.70;;;;;;5037134;28;20033;-62
2022/12/29 01:57:52;;;;;;;4.25;2.42;;;7.00;72.60;;;;;;5045316;28;20041;-62
2022/12/29 02:00:18;;;;;;;4.00;2.40;;;7.00;72.70;;;;;;5054952;28;20025;-62
2022/12/29 02:02:51;;;;;;;3.38;2.28;;;7.10;72.70;;;;;;5041170;28;20408;-63
2022/12/29 02:05:28;;;;;;;3.80;2.20;;;7.10;72.80;;;;;;5037974;28;20033;-64
2022/12/29 02:07:54;;;;;;;2.28;2.03;;;7.10;72.80;;;;;;5041992;28;20720;-62
2022/12/29 02:10:25;;;;;;;3.05;2.00;;;7.10;73.40;;;;;;5048404;28;20476;-63
2022/12/29 02:12:52;;;;;;;5.78;2.20;;;7.10;72.70;;;;;;5042199;28;20021;-62
2022/12/29 02:15:51;;;;;;;6.30;2.70;;;7.10;72.60;;;;;;5048530;28;20090;-63
2022/12/29 02:18:16;;;;;;;4.72;2.30;;;7.20;72.70;;;;;;5034473;28;20113;-63
2022/12/29 02:20:51;;;;;;;4.38;2.33;;;7.20;72.60;;;;;;5051499;28;20030;-63
2022/12/29 02:23:37;;;;;;;4.82;2.35;;;7.20;72.50;;;;;;5051941;28;20049;-64
2022/12/29 02:26:21;;;;;;;5.45;2.20;;;7.30;72.50;;;;;;5045108;28;20025;-62
2022/12/29 02:29:11;;;;;;;3.65;1.75;;;7.30;72.20;;;;;;5043480;28;20029;-62
2022/12/29 02:31:43;;;;;;;3.90;1.95;;;7.40;72.20;;;;;;5039476;28;20025;-64
2022/12/29 02:34:30;;;;;;;4.00;1.90;;;7.50;72.30;;;;;;5034624;28;20029;-65
2022/12/29 02:37:07;;;;;;;2.63;1.77;;;7.60;71.70;;;;;;5047172;28;20043;-63
2022/12/29 02:40:20;;;;;;;5.22;1.95;;;7.70;71.70;;;;;;5040415;28;20022;-63
2022/12/29 02:42:51;;;;;;;4.82;1.80;;;7.80;71.30;;;;;;5033513;28;20064;-63
2022/12/29 02:45:28;;;;;;;2.53;1.65;;;7.80;71.40;;;;;;5045537;28;20037;-62
2022/12/29 02:47:56;;;;;;;2.53;1.50;;;8.00;71.10;;;;;;5043138;28;20091;-64
2022/12/29 02:50:43;;;;;;;3.10;1.48;;;8.00;70.90;;;;;;5046014;28;20029;-62
2022/12/29 02:53:16;;;;;;;2.67;1.52;;;8.10;70.20;;;;;;5050587;28;20048;-62
2022/12/29 02:55:49;;;;;;;2.65;1.60;;;8.20;70.30;;;;;;5044416;28;20379;-63
2022/12/29 02:58:19;;;;;;;2.58;1.40;;;8.30;70.20;;;;;;5043364;28;20036;-63
2022/12/29 03:01:04;;;;;;;1.80;1.27;;;8.40;70.10;;;;;;5044310;28;20113;-63
2022/12/29 03:03:40;;;;;;;2.03;1.42;;;8.50;69.50;;;;;;5046142;28;20029;-63
2022/12/29 03:06:30;;;;;;;1.80;1.20;;;8.50;69.70;;;;;;5045034;28;20021;-63
2022/12/29 03:09:18;;;;;;;5.43;1.40;;;8.60;69.10;;;;;;5040432;28;20037;-63
2022/12/29 03:12:09;;;;;;;2.13;1.27;;;8.70;69.20;;;;;;5034095;28;20029;-62
2022/12/29 03:18:10;;;;;;;2.80;1.50;;;8.70;68.30;;;;;;5034417;28;20033;-62
2022/12/29 03:20:56;;;;;;;2.25;1.40;;;8.70;68.70;;;;;;5049152;28;20029;-62
2022/12/29 03:23:23;;;;;;;3.72;1.58;;;8.70;68.00;;;;;;5043658;28;20079;-62
2022/12/29 03:25:52;;;;;;;2.67;1.50;;;8.80;68.50;;;;;;5040775;28;20030;-62
2022/12/29 03:28:36;;;;;;;2.85;1.63;;;8.80;68.30;;;;;;5043980;28;20036;-62
2022/12/29 03:31:04;;;;;;;4.22;1.83;;;8.80;68.10;;;;;;5041534;28;20021;-63
2022/12/29 03:33:31;;;;;;;4.00;2.40;;;8.80;68.00;;;;;;5039953;28;20035;-62
2022/12/29 03:36:04;;;;;;;2.90;1.73;;;8.80;67.90;;;;;;5042431;28;20034;-62
2022/12/29 03:38:48;;;;;;;2.83;1.90;;;8.80;67.70;;;;;;5037494;28;20089;-62
2022/12/29 03:41:20;;;;;;;2.63;1.80;;;8.80;67.50;;;;;;5042605;28;20020;-63
2022/12/29 03:43:46;;;;;;;3.00;1.90;;;8.80;67.60;;;;;;5046084;28;20030;-63
2022/12/29 03:46:12;;;;;;;3.60;1.90;;;8.80;67.70;;;;;;5052953;28;20029;-63
2022/12/29 03:48:37;;;;;;;3.05;1.77;;;8.70;67.40;;;;;;5053816;28;20025;-64
2022/12/29 03:51:03;;;;;;;3.30;1.65;;;8.80;67.50;;;;;;5051796;28;20060;-62
2022/12/29 03:53:29;;;;;;;4.90;1.70;;;8.80;67.50;;;;;;5047813;28;20030;-64
2022/12/29 03:55:54;;;;;;;2.65;1.80;;;8.70;67.40;;;;;;5045258;28;20029;-63
2022/12/29 03:58:20;;;;;;;3.72;1.50;;;8.80;67.30;;;;;;5046571;28;20030;-62
2022/12/29 04:00:46;;;;;;;2.40;1.50;;;8.70;67.20;;;;;;5048460;28;20037;-62
2022/12/29 04:03:11;;;;;;;3.10;1.90;;;8.70;67.10;;;;;;5057961;28;20052;-63
2022/12/29 04:05:37;;;;;;;3.05;1.73;;;8.70;67.00;;;;;;5062582;28;20017;-63
2022/12/29 04:08:03;;;;;;;2.00;1.55;;;8.70;66.60;;;;;;5056445;28;20013;-63
2022/12/29 04:10:28;;;;;;;4.03;1.40;;;8.70;66.80;;;;;;5060059;28;20122;-64
2022/12/29 04:12:54;;;;;;;4.03;1.55;;;8.70;67.00;;;;;;5064889;28;20025;-64
2022/12/29 04:15:19;;;;;;;1.27;1.17;;;8.70;67.10;;;;;;5048039;28;20468;-64
2022/12/29 04:17:45;;;;;;;1.65;1.38;;;8.70;67.20;;;;;;5044533;28;20033;-64
2022/12/29 04:23:05;;;;;;;1.20;1.10;;;8.60;67.10;;;;;;5055719;28;20434;-64
2022/12/29 04:25:32;;;;;;;2.50;1.20;;;8.60;67.00;;;;;;5044002;28;20089;-64
2022/12/29 04:27:58;;;;;;;3.45;1.55;;;8.50;67.20;;;;;;5045579;28;20033;-64
2022/12/29 04:30:24;;;;;;;2.80;1.27;;;8.50;67.20;;;;;;5048892;28;20032;-63
2022/12/29 04:32:50;;;;;;;2.42;1.45;;;8.50;67.10;;;;;;5053239;28;20379;-63
2022/12/29 04:35:16;;;;;;;1.77;1.30;;;8.50;67.20;;;;;;5046385;28;20067;-63
2022/12/29 04:37:41;;;;;;;2.10;1.25;;;8.40;67.20;;;;;;5049374;28;20569;-63
2022/12/29 04:40:08;;;;;;;2.60;1.55;;;8.40;67.10;;;;;;5048820;28;20025;-63
2022/12/29 04:42:33;;;;;;;1.67;1.50;;;8.40;67.10;;;;;;5043649;28;20048;-63
2022/12/29 04:44:59;;;;;;;2.97;1.67;;;8.40;67.10;;;;;;5051779;28;20041;-63
2022/12/29 04:47:25;;;;;;;2.45;1.55;;;8.40;67.00;;;;;;5044826;28;20060;-63
2022/12/29 04:49:50;;;;;;;2.38;1.65;;;8.30;67.00;;;;;;5045700;28;20515;-63
2022/12/29 04:52:16;;;;;;;3.80;1.60;;;8.30;66.90;;;;;;5043027;28;20064;-64
2022/12/29 04:54:42;;;;;;;5.15;1.83;;;8.30;66.90;;;;;;5047981;28;20033;-63
2022/12/29 04:57:07;;;;;;;4.32;1.50;;;8.30;66.80;;;;;;5047343;28;20033;-64
2022/12/29 04:59:33;;;;;;;2.72;1.40;;;8.20;66.70;;;;;;5053321;28;20029;-63
2022/12/29 05:01:58;;;;;;;3.08;1.63;;;8.20;67.00;;;;;;5052054;28;20110;-63
2022/12/29 05:04:24;;;;;;;2.25;1.40;;;8.20;66.90;;;;;;5043096;28;20037;-64
2022/12/29 05:06:50;;;;;;;2.65;1.42;;;8.20;66.80;;;;;;5054082;28;20021;-63
2022/12/29 05:09:15;;;;;;;1.60;1.20;;;8.20;66.70;;;;;;5047861;28;20029;-63
2022/12/29 05:11:41;;;;;;;2.08;1.50;;;8.20;66.80;;;;;;5043066;28;20033;-64
2022/12/29 05:14:06;;;;;;;1.95;1.30;;;8.20;66.70;;;;;;5052807;28;20032;-63
2022/12/29 05:16:32;;;;;;;2.42;1.50;;;8.20;66.50;;;;;;5049175;28;20033;-63
2022/12/29 05:18:58;;;;;;;1.75;1.30;;;8.20;66.50;;;;;;5045245;28;20022;-63
2022/12/29 05:21:23;;;;;;;2.10;1.27;;;8.20;66.40;;;;;;5049020;28;20040;-64
2022/12/29 05:23:49;;;;;;;2.25;1.45;;;8.20;66.40;;;;;;5046068;28;20067;-63
2022/12/29 05:26:15;;;;;;;2.05;1.40;;;8.10;66.30;;;;;;5045590;28;20063;-63
2022/12/29 05:28:40;;;;;;;2.08;1.30;;;8.10;66.40;;;;;;5044851;28;20036;-63
2022/12/29 05:31:06;;;;;;;2.08;1.50;;;8.00;66.40;;;;;;5052079;28;20017;-63
2022/12/29 05:33:31;;;;;;;3.30;1.20;;;8.00;66.50;;;;;;5050493;28;20426;-64
2022/12/29 05:36:04;;;;;;;2.53;1.48;;;8.00;66.50;;;;;;5049241;28;20108;-63
2022/12/29 05:38:29;;;;;;;2.75;1.40;;;7.90;66.50;;;;;;5044503;28;20049;-63
2022/12/29 05:40:55;;;;;;;2.17;1.50;;;7.90;66.50;;;;;;5048509;28;20032;-63
2022/12/29 05:43:21;;;;;;;1.50;1.30;;;7.80;66.60;;;;;;5040915;28;20048;-63
2022/12/29 05:45:49;;;;;;;2.60;1.83;;;7.80;66.60;;;;;;5071120;28;20044;-63
2022/12/29 05:48:15;;;;;;;2.35;1.63;;;7.70;66.70;;;;;;5058888;28;20064;-63
2022/12/29 05:50:41;;;;;;;2.05;1.65;;;7.60;66.80;;;;;;5050118;28;20473;-61
2022/12/29 05:53:06;;;;;;;2.28;1.60;;;7.60;67.00;;;;;;5043060;28;20044;-62
2022/12/29 05:55:32;;;;;;;3.55;1.45;;;7.60;67.20;;;;;;5043620;28;20040;-64
2022/12/29 05:57:58;;;;;;;2.60;1.50;;;7.60;67.40;;;;;;5048183;28;20021;-62
2022/12/29 06:00:23;;;;;;;1.48;1.17;;;7.60;67.60;;;;;;5057029;28;20033;-62
2022/12/29 06:02:49;;;;;;;1.67;1.38;;;7.60;67.70;;;;;;5041544;28;20025;-62
2022/12/29 06:05:15;;;;;;;3.65;1.65;;;7.60;67.70;;;;;;5042714;28;20029;-63
2022/12/29 06:07:41;;;;;;;2.28;1.40;;;7.60;67.80;;;;;;5048157;28;20029;-62
2022/12/29 06:10:07;;;;;;;3.92;1.60;;;7.70;67.80;;;;;;5038971;28;20036;-62
2022/12/29 06:12:32;;;;;;;2.90;1.48;;;7.70;67.80;;;;;;5046562;28;20072;-63
2022/12/29 06:14:58;;;;;;;3.13;1.52;;;7.80;67.80;;;;;;5040546;28;20029;-63
2022/12/29 06:17:24;;;;;;;2.20;1.40;;;7.80;67.80;;;;;;5047376;28;20037;-63
2022/12/29 06:19:49;;;;;;;1.92;1.50;;;7.80;67.70;;;;;;5035919;28;20022;-63
2022/12/29 06:22:15;;;;;;;2.92;1.75;;;7.90;67.80;;;;;;5039745;28;20057;-63
2022/12/29 06:24:41;;;;;;;4.82;2.00;;;7.90;67.60;;;;;;5046479;28;20067;-64
2022/12/29 06:27:06;;;;;;;3.22;1.75;;;8.00;67.60;;;;;;5045882;28;20053;-63
2022/12/29 06:29:32;;;;;;;3.17;2.00;;;8.00;67.60;;;;;;5049196;28;20084;-63
2022/12/29 06:31:58;;;;;;;3.20;2.25;;;8.00;67.60;;;;;;5054624;28;20025;-64
2022/12/29 06:34:24;;;;;;;6.22;2.50;;;8.00;67.40;;;;;;5048129;28;20029;-63
2022/12/29 06:36:50;;;;;;;7.70;2.40;;;8.00;67.30;;;;;;5043982;28;20022;-63
2022/12/29 06:39:16;;;;;;;4.63;2.33;;;8.00;67.20;;;;;;5042463;28;20384;-63
2022/12/29 06:41:41;;;;;;;4.38;2.30;;;8.10;67.30;;;;;;5046944;28;20090;-63
2022/12/29 06:44:07;;;;;;;3.50;2.13;;;8.10;67.30;;;;;;5052233;28;20104;-63
2022/12/29 06:46:33;;;;;;;4.88;2.47;;;8.00;67.20;;;;;;5054271;28;20081;-63
2022/12/29 06:48:58;;;;;;;5.22;3.13;;;8.00;67.30;;;;;;5040778;28;20021;-63
2022/12/29 06:51:24;;;;;;;6.30;3.10;;;8.00;67.40;;;;;;5040034;28;20057;-63
2022/12/29 06:53:49;;;;;;;5.40;2.47;;;8.00;67.40;;;;;;5046505;28;20033;-63
2022/12/29 06:56:15;;;;;;;6.25;2.65;;;8.00;67.40;;;;;;5046656;28;20072;-63
2022/12/29 06:58:41;;;;;;;5.95;2.50;;;8.00;67.40;;;;;;5054355;28;20040;-64
2022/12/29 07:01:06;;;;;;;5.57;2.33;;;8.00;67.50;;;;;;5040760;28;20025;-64
2022/12/29 07:03:32;;;;;;;3.78;2.03;;;8.00;67.70;;;;;;5047900;28;20113;-64
2022/12/29 07:05:58;;;;;;;4.65;2.50;;;8.00;67.80;;;;;;5056858;28;20053;-64
2022/12/29 07:08:24;;;;;;;9.73;2.70;;;8.00;67.90;;;;;;5048671;28;20053;-63
2022/12/29 07:10:50;;;;;;;5.30;2.28;;;8.00;67.90;;;;;;5048718;28;20029;-63
2022/12/29 07:13:15;;;;;;;9.43;2.63;;;8.00;67.90;;;;;;5046494;28;20064;-63
2022/12/29 07:15:41;;;;;;;3.28;2.10;;;8.00;67.90;;;;;;5046687;28;20044;-63
2022/12/29 07:18:07;;;;;;;3.63;2.03;;;8.00;68.00;;;;;;5046628;28;20025;-63
2022/12/29 07:20:32;;;;;;;2.97;1.80;;;8.00;68.00;;;;;;5050545;28;20052;-64
2022/12/29 07:22:58;;;;;;;2.83;1.80;;;8.00;68.00;;;;;;5049412;28;20077;-63
2022/12/29 07:25:24;;;;;;;4.40;2.17;;;8.00;68.00;;;;;;5053191;28;20472;-64
2022/12/29 07:27:50;;;;;;;5.20;1.83;;;8.00;68.00;;;;;;5053587;28;20017;-65
2022/12/29 07:30:16;;;;;;;6.25;2.38;;;8.00;68.10;;;;;;5048229;28;20025;-64
2022/12/29 07:32:41;;;;;;;4.32;2.50;;;8.00;68.30;;;;;;5056668;28;20085;-64
2022/12/29 07:35:07;;;;;;;3.15;1.92;;;8.00;68.60;;;;;;5046920;28;20117;-64
2022/12/29 07:37:34;;;;;;;4.88;2.17;;;8.00;68.80;;;;;;5048928;28;20404;-65
2022/12/29 07:40:00;;;;;;;5.18;2.65;;;8.10;68.90;;;;;;5053701;28;20017;-64
2022/12/29 07:42:26;;;;;;;3.97;2.30;;;8.10;69.00;;;;;;5049928;28;20033;-64
2022/12/29 07:44:52;;;;;;;3.05;2.08;;;8.20;69.00;;;;;;5054783;28;20033;-64
2022/12/29 07:47:18;;;;;;;6.50;2.53;;;8.30;69.10;;;;;;5049258;28;20437;-64
2022/12/29 07:49:43;;;;;;;5.00;2.30;;;8.30;69.00;;;;;;5041689;28;20045;-64
2022/12/29 07:52:09;;;;;;;5.50;2.40;;;8.40;69.00;;;;;;5039558;28;20088;-64
2022/12/29 07:54:35;;;;;;;4.13;2.10;;;8.40;69.00;;;;;;5039340;28;20096;-64
2022/12/29 07:57:00;;;;;;;3.05;2.30;;;8.50;68.90;;;;;;5027595;28;20377;-64
2022/12/29 07:59:26;;;;;;;4.40;2.10;;;8.60;68.90;;;;;;5034651;28;20029;-64
2022/12/29 08:01:52;;;;;;;2.97;1.70;;;8.60;68.80;;;;;;5049694;28;20025;-64
2022/12/29 08:04:18;;;;;;;3.83;1.80;;;8.70;68.80;;;;;;5053569;28;20102;-64
2022/12/29 08:06:45;;;;;;;5.57;2.13;;;8.70;68.70;;;;;;5046960;28;20072;-64
2022/12/29 08:09:10;;;;;;;4.68;2.13;;;8.80;68.70;;;;;;5043857;28;20027;-64
2022/12/29 08:11:36;;;;;;;3.42;2.03;;;8.80;68.60;;;;;;5044183;28;20025;-64
2022/12/29 08:14:02;;;;;;;5.28;2.00;;;8.90;68.60;;;;;;5046612;28;20017;-64
2022/12/29 08:16:28;;;;;;;7.03;2.28;;;8.90;68.60;;;;;;5053505;28;20068;-64
2022/12/29 08:18:54;;;;;;;7.05;2.35;;;9.00;68.70;;;;;;5045689;28;20020;-65
2022/12/29 08:21:19;;;;;;;4.05;2.00;;;9.00;68.70;;;;;;5052651;28;20040;-64
2022/12/29 08:23:45;;;;;;;6.55;2.63;;;9.00;68.70;;;;;;5038342;28;20044;-64
2022/12/29 08:26:11;;;;;;;7.82;2.78;;;9.10;68.70;;;;;;5038948;28;20090;-64
2022/12/29 08:28:37;;;;;;;4.10;2.10;;;9.20;68.70;;;;;;5048762;28;20040;-64
2022/12/29 08:31:02;;;;;;;2.63;1.77;;;9.20;68.70;;;;;;5047218;28;20099;-65
2022/12/29 08:33:29;;;;;;;3.55;2.05;;;9.20;68.70;;;;;;5038646;28;20034;-65
2022/12/29 08:36:02;;;;;;;5.88;2.50;;;9.30;68.60;;;;;;5043618;28;20036;-65
2022/12/29 08:38:29;;;;;;;6.90;2.10;;;9.40;68.60;;;;;;5036392;28;20030;-65
2022/12/29 08:40:55;;;;;;;4.15;2.50;;;9.40;68.50;;;;;;5039523;28;20025;-64
2022/12/29 08:43:21;;;;;;;3.53;1.98;;;9.40;68.50;;;;;;5041474;28;20049;-64
2022/12/29 08:45:46;;;;;;;4.32;2.03;;;9.50;68.50;;;;;;5049263;28;20037;-63
2022/12/29 08:48:12;;;;;;;3.35;1.90;;;9.50;68.40;;;;;;5041850;28;20033;-65
2022/12/29 08:50:38;;;;;;;3.50;2.20;;;9.60;68.40;;;;;;5050633;28;20029;-64
2022/12/29 08:53:03;;;;;;;4.35;2.25;;;9.60;68.30;;;;;;5039430;28;20029;-63
2022/12/29 08:55:29;;;;;;;4.47;2.40;;;9.70;68.30;;;;;;5037627;28;20085;-64
2022/12/29 08:57:54;;;;;;;6.47;2.53;;;9.70;68.20;;;;;;5038406;28;20022;-65
2022/12/29 09:00:20;;;;;;;9.05;3.03;;;9.70;68.20;;;;;;5043904;28;20064;-65
2022/12/29 09:02:46;;;;;;;4.25;2.40;;;9.80;68.10;;;;;;5035795;28;20053;-65
2022/12/29 09:05:12;;;;;;;2.90;1.95;;;9.90;68.20;;;;;;5046543;28;20059;-65
2022/12/29 09:07:38;;;;;;;3.80;2.47;;;9.90;68.10;;;;;;5040464;28;20033;-65
2022/12/29 09:10:04;;;;;;;4.72;2.35;;;10.00;67.90;;;;;;5031676;28;20026;-64
2022/12/29 09:12:30;;;;;;;4.97;2.40;;;10.00;67.90;;;;;;5049618;28;20073;-65
2022/12/29 09:14:56;;;;;;;4.80;2.10;;;10.10;67.80;;;;;;5040021;28;20040;-65
2022/12/29 09:20:06;;;;;;;3.00;2.00;;;10.20;67.80;;;;;;5048780;28;20039;-65
2022/12/29 09:22:32;;;;;;;4.78;2.05;;;10.30;67.80;;;;;;5042030;28;20022;-65
2022/12/29 09:24:58;;;;;;;3.10;2.15;;;10.40;67.80;;;;;;5040358;28;20090;-65
2022/12/29 09:27:23;;;;;;;4.20;2.30;;;10.50;67.80;;;;;;5043378;28;20103;-65
2022/12/29 09:29:49;;;;;;;3.13;2.28;;;10.60;67.90;;;;;;5043261;28;20024;-65
2022/12/29 09:32:14;;;;;;;3.55;2.00;;;10.80;67.70;;;;;;5040937;28;20029;-65
2022/12/29 09:34:40;;;;;;;7.40;2.10;;;10.90;67.50;;;;;;5042856;28;20432;-65
2022/12/29 09:37:06;;;;;;;2.25;1.70;;;11.00;67.30;;;;;;5035026;28;20056;-65
2022/12/29 09:39:31;;;;;;;6.57;2.42;;;11.10;66.80;;;;;;5032782;28;20052;-65
2022/12/29 09:42:16;;;;;;;7.90;2.50;;;11.30;66.90;;;;;;5044515;28;20036;-64
2022/12/29 09:45:17;;;;;;;9.18;2.78;;;11.40;66.20;;;;;;5043978;28;20041;-65
2022/12/29 09:47:44;;;;;;;5.53;2.20;;;11.60;65.90;;;;;;5041810;28;20380;-65
2022/12/29 09:50:24;;;;;;;5.93;2.03;;;11.70;65.60;;;;;;5054663;28;20025;-65
2022/12/29 09:52:58;;;;;;;3.80;2.20;;;11.80;64.60;;;;;;5040760;28;20053;-65
2022/12/29 09:55:32;;;;;;;6.97;2.00;;;11.90;64.60;;;;;;5038157;28;20061;-65
2022/12/29 09:58:05;;;;;;;4.35;1.90;;;11.90;64.30;;;;;;5042259;28;20303;-65
2022/12/29 10:00:38;;;;;;;3.50;1.83;;;11.90;64.30;;;;;;5033601;28;20029;-64
2022/12/29 10:03:18;;;;;;;4.07;2.10;;;11.90;63.30;;;;;;5043825;28;20021;-65
2022/12/29 10:06:03;;;;;;;2.60;1.75;;;11.90;63.80;;;;;;5041378;28;20029;-66
2022/12/29 10:09:08;;;;;;;4.03;2.08;;;11.90;63.50;;;;;;5044683;28;20044;-65
2022/12/29 10:11:50;;;;;;;6.72;2.25;;;12.00;63.90;;;;;;5041700;28;20056;-65
2022/12/29 10:14:54;;;;;;;6.38;1.98;;;12.00;63.80;;;;;;5044372;28;20033;-65
2022/12/29 10:17:53;;;;;;;2.35;1.80;;;12.00;63.60;;;;;;5012036;28;20037;-66
2022/12/29 10:20:55;;;;;;;3.55;1.90;;;12.10;63.70;;;;;;5016540;28;20034;-64
2022/12/29 10:23:32;;;;;;;3.53;1.80;;;12.20;63.40;;;;;;5010095;28;20042;-64
2022/12/29 10:26:00;;;;;;;5.70;2.08;;;12.20;63.80;;;;;;4994034;28;20046;-64
2022/12/29 10:28:52;;;;;;;3.83;2.30;;;12.30;64.00;;;;;;5009495;28;20037;-64
2022/12/29 10:31:23;;;;;;;4.63;1.77;;;12.30;63.00;;;;;;4956278;28;20053;-64
2022/12/29 10:34:00;;;;;;;3.95;2.20;;;12.30;63.80;;;;;;4992341;28;20049;-65
2022/12/29 10:36:40;;;;;;;4.55;2.40;;;12.40;64.40;;;;;;5011365;28;20050;-65
2022/12/29 10:39:32;;;;;;;3.03;1.83;;;12.40;63.70;;;;;;5004139;28;20038;-65
2022/12/29 10:42:25;;;;;;;5.32;2.20;;;12.40;63.70;;;;;;4993868;28;20391;-65
2022/12/29 10:44:51;;;;;;;4.60;2.05;;;12.50;63.30;;;;;;4985821;28;20043;-65
2022/12/29 10:47:24;;;;;;;5.82;1.83;;;12.60;63.70;;;;;;4982874;28;20579;-65
2022/12/29 10:49:50;;;;;;;2.75;1.90;;;12.60;63.50;;;;;;4982934;28;20114;-65
2022/12/29 10:52:18;;;;;;;2.25;1.55;;;12.70;63.30;;;;;;5037035;28;20064;-65
2022/12/29 10:55:02;;;;;;;5.18;2.10;;;12.70;63.60;;;;;;5042604;28;20124;-66
2022/12/29 10:57:27;;;;;;;8.00;2.10;;;12.80;63.00;;;;;;5038366;28;20546;-65
2022/12/29 10:59:53;;;;;;;4.70;1.80;;;12.80;63.30;;;;;;5042880;28;20088;-65
2022/12/29 11:02:46;;;;;;;3.00;1.83;;;12.90;63.10;;;;;;5039578;28;20166;-66
2022/12/29 11:05:37;;;;;;;4.40;2.10;;;12.90;62.00;;;;;;5040841;28;20091;-64
2022/12/29 11:08:09;;;;;;;3.97;1.73;;;12.90;61.90;;;;;;5044448;28;20041;-64
2022/12/29 11:10:41;;;;;;;6.40;1.65;;;13.00;62.70;;;;;;5031368;28;20159;-64
2022/12/29 11:13:18;;;;;;;6.32;2.08;;;12.90;62.30;;;;;;5038098;28;20049;-64
2022/12/29 11:15:46;;;;;;;2.63;1.70;;;12.90;62.20;;;;;;5031341;28;22041;-64
2022/12/29 11:18:24;;;;;;;4.60;1.88;;;13.00;62.50;;;;;;5045589;28;20041;-64
2022/12/29 11:21:00;;;;;;;3.22;1.83;;;12.90;62.10;;;;;;5038364;28;20017;-64
2022/12/29 11:23:38;;;;;;;3.97;2.53;;;12.90;62.50;;;;;;5041032;28;20036;-64
2022/12/29 11:26:15;;;;;;;5.40;2.30;;;12.80;62.50;;;;;;5043652;28;20097;-64
2022/12/29 11:28:43;;;;;;;6.38;2.25;;;12.80;62.50;;;;;;5037297;28;20029;-63
2022/12/29 11:31:10;;;;;;;6.47;2.08;;;12.80;62.70;;;;;;5037406;28;20035;-64
2022/12/29 11:33:38;;;;;;;3.78;2.03;;;12.70;62.70;;;;;;5046502;28;20028;-64
2022/12/29 11:36:13;;;;;;;7.50;2.10;;;12.70;62.80;;;;;;5039344;28;20081;-64
2022/12/29 11:38:42;;;;;;;4.53;1.70;;;12.70;62.80;;;;;;5039931;28;20040;-63
2022/12/29 11:41:13;;;;;;;3.28;2.10;;;12.70;63.20;;;;;;5036983;28;20018;-64
2022/12/29 11:43:43;;;;;;;3.42;1.70;;;12.60;63.10;;;;;;5046784;28;20399;-65
2022/12/29 11:46:17;;;;;;;4.97;2.08;;;12.70;63.40;;;;;;5049490;28;20029;-65
2022/12/29 11:48:43;;;;;;;3.88;2.15;;;12.60;63.30;;;;;;5039810;28;20428;-66
2022/12/29 11:51:11;;;;;;;3.75;1.98;;;12.60;63.50;;;;;;5045238;28;20045;-65
2022/12/29 11:53:43;;;;;;;5.28;2.00;;;12.60;63.60;;;;;;5031822;28;20053;-64
2022/12/29 11:56:13;;;;;;;5.43;1.80;;;12.60;63.70;;;;;;5039666;28;20030;-65
2022/12/29 11:58:39;;;;;;;6.88;1.90;;;12.60;63.80;;;;;;5050191;28;20025;-64
2022/12/29 12:01:27;;;;;;;4.75;1.60;;;12.60;64.00;;;;;;5038248;28;20029;-65
2022/12/29 12:04:01;;;;;;;4.55;2.08;;;12.60;64.00;;;;;;5038022;28;20104;-64
2022/12/29 12:06:28;;;;;;;7.13;2.50;;;12.70;64.00;;;;;;5037255;28;20040;-64
2022/12/29 12:08:59;;;;;;;7.50;2.53;;;12.70;64.10;;;;;;5043126;28;20025;-65
2022/12/29 12:11:36;;;;;;;3.25;2.35;;;12.80;63.90;;;;;;5040053;28;20076;-65
2022/12/29 12:14:31;;;;;;;6.85;2.13;;;12.80;64.00;;;;;;5042908;28;20036;-65
2022/12/29 12:17:12;;;;;;;6.43;2.10;;;12.90;63.60;;;;;;5049083;28;20021;-65
2022/12/29 12:19:48;;;;;;;3.63;1.80;;;12.90;64.10;;;;;;5044341;28;20029;-64
2022/12/29 12:22:31;;;;;;;3.63;2.05;;;13.00;64.60;;;;;;5035219;28;20026;-65
2022/12/29 12:25:25;;;;;;;3.28;1.63;;;13.00;64.00;;;;;;5052782;28;20096;-65
2022/12/29 12:27:57;;;;;;;2.67;1.60;;;13.00;63.90;;;;;;5039413;28;20053;-64
2022/12/29 12:30:26;;;;;;;3.97;1.75;;;13.10;64.00;;;;;;5032458;28;20093;-65
2022/12/29 12:33:04;;;;;;;3.65;1.65;;;13.10;64.00;;;;;;5043207;28;20034;-64
2022/12/29 12:35:39;;;;;;;5.80;2.00;;;13.10;63.30;;;;;;5044398;28;20108;-64
2022/12/29 12:38:16;;;;;;;3.17;1.80;;;13.10;63.30;;;;;;5029200;28;20151;-64
2022/12/29 12:40:53;;;;;;;4.07;1.85;;;13.20;63.50;;;;;;5034664;28;20026;-64
2022/12/29 12:43:44;;;;;;;5.97;2.15;;;13.20;63.40;;;;;;5041437;28;20088;-65
2022/12/29 12:46:20;;;;;;;5.18;2.78;;;13.20;63.40;;;;;;5036701;28;20022;-64
2022/12/29 12:49:14;;;;;;;6.10;2.20;;;13.20;64.20;;;;;;5044633;28;20379;-64
2022/12/29 12:52:02;;;;;;;5.67;1.87;;;13.20;63.20;;;;;;5042819;28;20053;-64
2022/12/29 12:54:56;;;;;;;3.85;1.75;;;13.20;63.50;;;;;;5049224;28;20100;-64
2022/12/29 12:57:45;;;;;;;5.88;2.17;;;13.20;63.20;;;;;;5044138;28;20037;-64
2022/12/29 13:00:23;;;;;;;8.20;4.78;;;13.20;63.10;;;;;;5038042;28;20029;-64
2022/12/29 13:03:00;;;;;;;7.03;2.65;;;13.20;63.30;;;;;;5045156;28;20033;-64
2022/12/29 13:05:41;;;;;;;4.38;2.15;;;13.20;63.40;;;;;;5029945;28;20041;-64
2022/12/29 13:08:44;;;;;;;4.32;2.28;;;13.20;63.20;;;;;;5030185;28;20029;-65
2022/12/29 13:11:40;;;;;;;5.60;3.15;;;13.20;63.40;;;;;;5048720;28;20029;-64
2022/12/29 13:14:19;;;;;;;4.82;2.08;;;13.20;63.40;;;;;;5042963;28;20032;-64
2022/12/29 13:17:01;;;;;;;2.35;1.50;;;13.20;63.60;;;;;;5034927;28;20041;-63
2022/12/29 13:19:27;;;;;;;4.00;1.58;;;13.10;63.80;;;;;;5035652;28;20049;-64
2022/12/29 13:22:01;;;;;;;2.55;1.83;;;13.20;64.00;;;;;;5042099;28;20060;-64
2022/12/29 13:24:36;;;;;;;4.20;2.05;;;13.10;64.10;;;;;;5034191;28;20482;-65
2022/12/29 13:27:23;;;;;;;2.80;1.60;;;13.10;64.30;;;;;;5042945;28;20021;-65
2022/12/29 13:30:11;;;;;;;4.35;2.60;;;13.10;64.50;;;;;;5040421;28;20112;-64
2022/12/29 13:33:14;;;;;;;4.03;2.38;;;13.10;64.60;;;;;;5044555;28;20033;-64
2022/12/29 13:35:51;;;;;;;5.65;1.90;;;13.10;64.90;;;;;;5031429;28;20025;-64
2022/12/29 13:38:23;;;;;;;6.15;3.28;;;13.10;64.90;;;;;;5037487;28;20030;-65
2022/12/29 13:41:04;;;;;;;6.43;3.58;;;13.00;65.00;;;;;;5042547;28;20029;-65
2022/12/29 13:43:34;;;;;;;5.65;2.60;;;13.00;65.10;;;;;;5042617;28;20491;-65
2022/12/29 13:46:06;;;;;;;6.88;4.95;;;13.00;65.00;;;;;;5039288;28;20021;-65
2022/12/29 13:48:40;;;;;;;6.13;2.70;;;13.00;65.10;;;;;;5036058;28;20036;-65
2022/12/29 13:51:09;;;;;;;5.13;2.42;;;13.00;65.30;;;;;;5036656;28;20440;-66